createdAt,value
2023-11-06T00:00:05.322Z,87.51
2023-11-06T00:02:05.633Z,87.51
2023-11-06T00:04:05.895Z,87.51
2023-11-06T00:06:06.280Z,87.30
2023-11-06T00:08:06.651Z,87.61
2023-11-06T00:10:06.905Z,87.41
2023-11-06T00:12:07.211Z,87.51
2023-11-06T00:14:07.508Z,87.61
2023-11-06T00:16:15.763Z,87.61
2023-11-06T00:18:13.074Z,87.30
2023-11-06T00:20:13.475Z,87.51
2023-11-06T00:22:13.839Z,87.51
2023-11-06T00:24:14.119Z,87.71
2023-11-06T00:26:14.414Z,87.82
2023-11-06T00:28:14.725Z,87.92
2023-11-06T00:30:15.049Z,88.23
2023-11-06T00:32:15.344Z,88.68
2023-11-06T00:34:15.686Z,88.98
2023-11-06T00:36:15.999Z,89.09
2023-11-06T00:38:16.467Z,89.18
2023-11-06T00:40:16.858Z,89.53
2023-11-06T00:42:17.089Z,89.94
2023-11-06T00:44:17.462Z,90.05
2023-11-06T00:46:17.722Z,89.94
2023-11-06T00:48:18.111Z,90.15
2023-11-06T00:50:18.433Z,90.25
2023-11-06T00:52:18.764Z,90.15
2023-11-06T00:54:19.055Z,90.25
2023-11-06T00:56:20.399Z,90.36
2023-11-06T00:58:20.827Z,90.45
2023-11-06T01:00:21.209Z,90.36
2023-11-06T01:02:21.550Z,90.56
2023-11-06T01:04:21.846Z,90.45
2023-11-06T01:06:22.147Z,90.45
2023-11-06T01:08:22.506Z,90.45
2023-11-06T01:10:22.889Z,90.56
2023-11-06T01:12:23.251Z,90.56
2023-11-06T01:14:23.610Z,90.66
2023-11-06T01:16:23.872Z,90.56
2023-11-06T01:18:24.279Z,90.56
2023-11-06T01:20:24.595Z,90.77
2023-11-06T01:22:34.875Z,91.17
2023-11-06T01:24:30.296Z,91.07
2023-11-06T01:26:31.142Z,91.07
2023-11-06T01:28:31.706Z,91.27
2023-11-06T01:30:31.974Z,91.27
2023-11-06T01:32:32.366Z,91.38
2023-11-06T01:34:32.638Z,91.27
2023-11-06T01:36:32.984Z,91.27
2023-11-06T01:38:33.264Z,91.38
2023-11-06T01:40:33.644Z,91.48
2023-11-06T01:42:33.965Z,91.58
2023-11-06T01:44:34.288Z,91.69
2023-11-06T01:46:34.597Z,91.48
2023-11-06T01:48:35.011Z,91.69
2023-11-06T01:50:35.334Z,92.14
2023-11-06T01:52:35.675Z,92.14
2023-11-06T01:54:35.926Z,92.34
2023-11-06T01:56:36.263Z,92.44
2023-11-06T01:58:36.572Z,92.34
2023-11-06T02:00:36.881Z,92.44
2023-11-06T02:02:42.236Z,92.65
2023-11-06T02:04:42.647Z,92.96
2023-11-06T02:06:43.636Z,93.06
2023-11-06T02:08:44.174Z,93.16
2023-11-06T02:10:44.439Z,93.26
2023-11-06T02:12:44.710Z,93.26
2023-11-06T02:14:45.098Z,93.26
2023-11-06T02:16:45.404Z,93.16
2023-11-06T02:18:45.740Z,93.16
2023-11-06T02:20:46.044Z,92.96
2023-11-06T02:22:46.607Z,93.06
2023-11-06T02:24:51.773Z,92.81
2023-11-06T02:26:52.043Z,92.60
2023-11-06T02:28:52.432Z,92.50
2023-11-06T02:30:52.768Z,92.40
2023-11-06T02:32:53.128Z,92.66
2023-11-06T02:34:53.582Z,93.93
2023-11-06T02:36:53.933Z,94.75
2023-11-06T02:38:54.182Z,95.98
2023-11-06T02:40:54.500Z,97.25
2023-11-06T02:42:54.793Z,98.07
2023-11-06T02:44:55.084Z,99.04
2023-11-06T02:46:55.492Z,99.04
2023-11-06T02:48:55.967Z,99.25
2023-11-06T02:50:56.278Z,99.96
2023-11-06T02:52:56.558Z,99.99
2023-11-06T02:54:57.176Z,99.99
2023-11-06T02:56:57.464Z,99.99
2023-11-06T02:58:57.757Z,99.99
2023-11-06T03:00:58.088Z,99.99
2023-11-06T03:02:58.559Z,99.99
2023-11-06T03:04:59.053Z,99.99
2023-11-06T03:06:59.448Z,99.99
2023-11-06T03:08:59.760Z,99.99
2023-11-06T03:11:00.651Z,99.99
2023-11-06T03:13:00.910Z,99.99
2023-11-06T03:15:01.322Z,99.99
2023-11-06T03:17:01.703Z,99.99
2023-11-06T03:19:02.011Z,99.99
2023-11-06T03:21:02.333Z,99.99
2023-11-06T03:23:02.627Z,99.99
2023-11-06T03:25:02.890Z,99.99
2023-11-06T03:27:03.188Z,99.99
2023-11-06T03:29:03.614Z,99.99
2023-11-06T03:31:04.113Z,99.99
2023-11-06T03:33:04.423Z,99.99
2023-11-06T03:35:04.726Z,99.99
2023-11-06T03:37:05.003Z,99.99
2023-11-06T03:39:05.339Z,99.99
2023-11-06T03:41:05.648Z,99.99
2023-11-06T03:43:05.929Z,99.99
2023-11-06T03:45:06.218Z,99.99
2023-11-06T03:47:06.572Z,99.99
2023-11-06T03:49:06.840Z,99.99
2023-11-06T03:51:07.129Z,99.99
2023-11-06T03:53:07.486Z,99.99
2023-11-06T03:55:07.797Z,99.99
2023-11-06T03:57:08.100Z,99.99
2023-11-06T03:59:08.373Z,99.99
2023-11-06T04:01:08.724Z,99.99
2023-11-06T04:03:09.206Z,99.99
2023-11-06T04:05:09.606Z,99.99
2023-11-06T04:07:09.911Z,99.99
2023-11-06T04:09:10.293Z,99.99
2023-11-06T04:11:10.663Z,99.99
2023-11-06T04:13:10.971Z,99.99
2023-11-06T04:15:11.384Z,99.99
2023-11-06T04:17:11.699Z,99.99
2023-11-06T04:19:11.992Z,99.99
2023-11-06T04:21:12.334Z,99.99
2023-11-06T04:23:12.639Z,99.99
2023-11-06T04:25:12.894Z,99.99
2023-11-06T04:27:13.180Z,99.99
2023-11-06T04:29:13.495Z,99.99
2023-11-06T04:31:13.769Z,99.99
2023-11-06T04:33:14.399Z,99.99
2023-11-06T04:35:14.865Z,99.99
2023-11-06T04:37:15.094Z,99.99
2023-11-06T04:39:15.387Z,99.99
2023-11-06T04:41:15.759Z,99.99
2023-11-06T04:43:16.088Z,99.99
2023-11-06T04:45:16.333Z,99.99
2023-11-06T04:47:16.798Z,99.99
2023-11-06T04:49:17.253Z,99.99
2023-11-06T04:51:17.702Z,99.99
2023-11-06T04:53:17.951Z,99.99
2023-11-06T04:55:18.247Z,99.99
2023-11-06T04:57:18.552Z,99.99
2023-11-06T04:59:18.953Z,99.99
2023-11-06T05:01:19.263Z,99.65
2023-11-06T05:03:19.678Z,99.24
2023-11-06T05:05:20.194Z,98.93
2023-11-06T05:07:20.529Z,98.72
2023-11-06T05:09:20.844Z,98.42
2023-11-06T05:11:21.205Z,98.52
2023-11-06T05:13:21.611Z,98.83
2023-11-06T05:15:21.902Z,98.52
2023-11-06T05:17:22.270Z,98.52
2023-11-06T05:19:22.559Z,98.21
2023-11-06T05:21:22.845Z,98.52
2023-11-06T05:23:23.202Z,98.27
2023-11-06T05:25:23.540Z,98.32
2023-11-06T05:27:23.833Z,98.37
2023-11-06T05:29:24.145Z,98.47
2023-11-06T05:31:24.427Z,98.07
2023-11-06T05:33:24.859Z,97.86
2023-11-06T05:35:25.180Z,98.00
2023-11-06T05:37:25.511Z,97.80
2023-11-06T05:39:25.796Z,97.65
2023-11-06T05:41:26.119Z,97.65
2023-11-06T05:43:26.421Z,97.86
2023-11-06T05:45:26.681Z,97.65
2023-11-06T05:47:27.091Z,97.34
2023-11-06T05:49:27.402Z,97.45
2023-11-06T05:51:27.681Z,97.04
2023-11-06T05:53:27.984Z,97.34
2023-11-06T05:55:28.226Z,97.34
2023-11-06T05:57:28.551Z,97.14
2023-11-06T05:59:28.935Z,97.14
2023-11-06T06:01:29.364Z,96.94
2023-11-06T06:03:29.840Z,97.14
2023-11-06T06:05:30.382Z,97.24
2023-11-06T06:07:30.905Z,97.34
2023-11-06T06:09:31.189Z,97.14
2023-11-06T06:11:31.470Z,97.24
2023-11-06T06:13:31.760Z,97.45
2023-11-06T06:15:32.122Z,97.34
2023-11-06T06:17:32.496Z,97.34
2023-11-06T06:19:32.865Z,97.34
2023-11-06T06:21:33.200Z,97.34
2023-11-06T06:23:33.545Z,97.65
2023-11-06T06:25:34.277Z,97.86
2023-11-06T06:27:34.592Z,97.86
2023-11-06T06:29:34.966Z,97.75
2023-11-06T06:31:35.312Z,97.65
2023-11-06T06:33:35.653Z,97.91
2023-11-06T06:35:36.279Z,97.91
2023-11-06T06:37:36.601Z,98.32
2023-11-06T06:39:36.881Z,98.32
2023-11-06T06:41:37.182Z,98.11
2023-11-06T06:43:37.513Z,97.91
2023-11-06T06:45:37.792Z,97.75
2023-11-06T06:47:38.203Z,97.75
2023-11-06T06:49:38.684Z,97.96
2023-11-06T06:51:39.187Z,98.07
2023-11-06T06:53:39.528Z,98.11
2023-11-06T06:55:39.861Z,98.21
2023-11-06T06:57:40.128Z,98.00
2023-11-06T06:59:45.324Z,98.16
2023-11-06T07:01:45.672Z,97.96
2023-11-06T07:03:46.261Z,97.55
2023-11-06T07:05:46.807Z,97.24
2023-11-06T07:07:47.114Z,97.14
2023-11-06T07:09:47.469Z,97.34
2023-11-06T07:11:47.745Z,97.40
2023-11-06T07:13:48.042Z,96.79
2023-11-06T07:15:48.349Z,96.73
2023-11-06T07:17:48.654Z,96.63
2023-11-06T07:19:49.069Z,96.38
2023-11-06T07:21:49.369Z,96.17
2023-11-06T07:23:49.713Z,95.76
2023-11-06T07:25:49.998Z,95.15
2023-11-06T07:27:50.444Z,94.64
2023-11-06T07:29:50.711Z,94.33
2023-11-06T07:31:50.981Z,94.64
2023-11-06T07:33:51.356Z,94.95
2023-11-06T07:35:51.676Z,94.43
2023-11-06T07:37:51.956Z,94.43
2023-11-06T07:39:53.183Z,94.49
2023-11-06T07:41:53.479Z,94.39
2023-11-06T07:43:53.865Z,93.57
2023-11-06T07:45:54.187Z,93.47
2023-11-06T07:47:54.549Z,92.91
2023-11-06T07:49:54.829Z,92.40
2023-11-06T07:51:55.166Z,91.89
2023-11-06T07:53:55.521Z,91.78
2023-11-06T07:55:55.762Z,91.58
2023-11-06T07:57:56.059Z,91.54
2023-11-06T07:59:56.388Z,91.74
2023-11-06T08:01:56.693Z,91.64
2023-11-06T08:03:57.004Z,91.23
2023-11-06T08:05:57.511Z,91.13
2023-11-06T08:07:57.878Z,90.72
2023-11-06T08:09:58.175Z,90.52
2023-11-06T08:11:58.482Z,90.52
2023-11-06T08:13:58.775Z,89.86
2023-11-06T08:15:59.108Z,89.35
2023-11-06T08:17:59.831Z,88.84
2023-11-06T08:20:00.278Z,89.00
2023-11-06T08:22:02.293Z,89.11
2023-11-06T08:24:02.833Z,88.08
2023-11-06T08:26:03.151Z,88.39
2023-11-06T08:28:03.499Z,88.29
2023-11-06T08:30:03.799Z,87.92
2023-11-06T08:32:04.140Z,88.64
2023-11-06T08:34:04.571Z,88.12
2023-11-06T08:36:04.918Z,88.90
2023-11-06T08:38:05.187Z,87.84
2023-11-06T08:40:05.517Z,86.77
2023-11-06T08:42:05.789Z,86.47
2023-11-06T08:44:06.157Z,85.45
2023-11-06T08:46:06.498Z,85.51
2023-11-06T08:48:06.957Z,85.51
2023-11-06T08:50:07.387Z,84.90
2023-11-06T08:52:07.675Z,84.80
2023-11-06T08:54:08.023Z,85.06
2023-11-06T08:56:08.353Z,84.55
2023-11-06T08:58:08.651Z,84.34
2023-11-06T09:00:08.998Z,84.75
2023-11-06T09:02:09.365Z,84.14
2023-11-06T09:04:09.759Z,84.25
2023-11-06T09:06:10.095Z,84.20
2023-11-06T09:08:10.396Z,82.88
2023-11-06T09:10:11.284Z,81.96
2023-11-06T09:12:11.938Z,81.86
2023-11-06T09:14:12.551Z,82.47
2023-11-06T09:16:12.927Z,81.96
2023-11-06T09:18:13.353Z,82.57
2023-11-06T09:20:13.787Z,82.68
2023-11-06T09:22:14.064Z,82.27
2023-11-06T09:24:14.409Z,82.68
2023-11-06T09:26:14.804Z,81.86
2023-11-06T09:28:15.172Z,82.43
2023-11-06T09:30:16.374Z,82.23
2023-11-06T09:32:16.688Z,82.13
2023-11-06T09:34:17.111Z,82.07
2023-11-06T09:36:17.416Z,82.47
2023-11-06T09:38:17.715Z,81.41
2023-11-06T09:40:18.021Z,81.52
2023-11-06T09:42:18.322Z,81.82
2023-11-06T09:44:18.637Z,81.72
2023-11-06T09:46:18.920Z,80.80
2023-11-06T09:48:19.402Z,81.68
2023-11-06T09:50:19.814Z,81.79
2023-11-06T09:52:20.796Z,80.77
2023-11-06T09:54:21.126Z,79.95
2023-11-06T09:56:21.449Z,80.11
2023-11-06T09:58:21.705Z,80.11
2023-11-06T10:00:22.372Z,80.11
2023-11-06T10:02:22.801Z,79.50
2023-11-06T10:04:23.294Z,79.54
2023-11-06T10:06:23.668Z,80.26
2023-11-06T10:08:23.956Z,80.02
2023-11-06T10:10:24.215Z,79.61
2023-11-06T10:12:24.531Z,78.89
2023-11-06T10:14:24.895Z,78.83
2023-11-06T10:16:25.248Z,78.93
2023-11-06T10:18:25.582Z,79.44
2023-11-06T10:20:25.857Z,79.03
2023-11-06T10:22:26.137Z,79.75
2023-11-06T10:24:26.501Z,79.75
2023-11-06T10:26:26.905Z,80.36
2023-11-06T10:28:27.940Z,80.46
2023-11-06T10:30:28.592Z,80.56
2023-11-06T10:32:28.981Z,79.95
2023-11-06T10:34:29.864Z,79.95
2023-11-06T10:36:30.371Z,79.85
2023-11-06T10:38:30.770Z,80.05
2023-11-06T10:40:31.216Z,80.26
2023-11-06T10:42:31.514Z,80.87
2023-11-06T10:44:31.807Z,80.87
2023-11-06T10:46:32.082Z,80.42
2023-11-06T10:48:32.462Z,79.71
2023-11-06T10:50:32.856Z,79.10
2023-11-06T10:52:33.150Z,79.61
2023-11-06T10:54:33.911Z,79.71
2023-11-06T10:56:34.487Z,79.10
2023-11-06T10:58:34.759Z,79.16
2023-11-06T11:00:35.109Z,79.06
2023-11-06T11:02:35.514Z,77.94
2023-11-06T11:04:35.867Z,78.05
2023-11-06T11:06:36.173Z,78.25
2023-11-06T11:08:36.538Z,78.25
2023-11-06T11:10:36.788Z,78.62
2023-11-06T11:12:37.071Z,78.11
2023-11-06T11:14:37.441Z,77.40
2023-11-06T11:16:37.691Z,77.20
2023-11-06T11:18:38.026Z,77.50
2023-11-06T11:20:38.882Z,77.60
2023-11-06T11:22:39.398Z,76.59
2023-11-06T11:24:39.687Z,76.48
2023-11-06T11:26:40.554Z,76.68
2023-11-06T11:28:41.083Z,77.33
2023-11-06T11:30:41.917Z,77.84
2023-11-06T11:32:46.734Z,77.50
2023-11-06T11:34:47.031Z,77.40
2023-11-06T11:36:47.580Z,77.16
2023-11-06T11:38:48.020Z,75.84
2023-11-06T11:40:53.238Z,75.49
2023-11-06T11:42:53.502Z,75.16
2023-11-06T11:44:53.811Z,73.90
2023-11-06T11:46:54.317Z,73.13
2023-11-06T11:48:54.755Z,73.74
2023-11-06T11:50:55.241Z,73.87
2023-11-06T11:52:55.636Z,73.74
2023-11-06T11:54:55.904Z,73.94
2023-11-06T11:56:56.265Z,73.94
2023-11-06T11:58:57.025Z,74.31
2023-11-06T12:00:57.308Z,74.41
2023-11-06T12:02:57.837Z,75.12
2023-11-06T12:04:58.146Z,73.39
2023-11-06T12:06:58.493Z,74.62
2023-11-06T12:08:58.807Z,74.51
2023-11-06T12:10:59.067Z,74.41
2023-11-06T12:12:59.365Z,75.26
2023-11-06T12:14:59.727Z,74.04
2023-11-06T12:17:07.645Z,74.88
2023-11-06T12:19:05.267Z,75.80
2023-11-06T12:21:05.616Z,77.47
2023-11-06T12:23:05.964Z,82.28
2023-11-06T12:25:06.318Z,86.68
2023-11-06T12:27:06.549Z,90.38
2023-11-06T12:29:06.846Z,92.26
2023-11-06T12:31:07.133Z,94.45
2023-11-06T12:33:08.150Z,95.26
2023-11-06T12:35:14.903Z,96.18
2023-11-06T12:37:20.029Z,96.59
2023-11-06T12:39:20.518Z,96.59
2023-11-06T12:41:20.823Z,97.00
2023-11-06T12:43:21.095Z,96.59
2023-11-06T12:45:21.409Z,97.25
2023-11-06T12:47:21.734Z,96.48
2023-11-06T12:49:22.057Z,96.38
2023-11-06T12:51:22.355Z,95.87
2023-11-06T12:53:22.687Z,94.71
2023-11-06T12:55:22.951Z,94.09
2023-11-06T12:57:23.261Z,94.35
2023-11-06T12:59:23.996Z,93.64
2023-11-06T13:01:24.286Z,93.64
2023-11-06T13:03:24.937Z,93.33
2023-11-06T13:05:25.239Z,92.87
2023-11-06T13:07:25.563Z,92.77
2023-11-06T13:09:25.836Z,92.16
2023-11-06T13:11:33.274Z,91.59
2023-11-06T13:13:31.341Z,91.85
2023-11-06T13:15:31.642Z,91.35
2023-11-06T13:17:32.022Z,91.14
2023-11-06T13:19:32.311Z,92.26
2023-11-06T13:21:32.649Z,91.96
2023-11-06T13:23:33.416Z,91.14
2023-11-06T13:25:33.969Z,91.14
2023-11-06T13:27:34.269Z,90.94
2023-11-06T13:29:34.594Z,91.03
2023-11-06T13:31:34.845Z,91.14
2023-11-06T13:33:35.227Z,89.81
2023-11-06T13:35:35.627Z,90.12
2023-11-06T13:37:35.898Z,90.01
2023-11-06T13:39:36.178Z,89.61
2023-11-06T13:41:36.499Z,89.00
2023-11-06T13:43:36.880Z,88.49
2023-11-06T13:45:37.188Z,89.10
2023-11-06T13:47:37.610Z,88.45
2023-11-06T13:49:38.026Z,88.31
2023-11-06T13:51:38.312Z,87.08
2023-11-06T13:53:38.703Z,86.47
2023-11-06T13:55:39.092Z,86.06
2023-11-06T13:57:44.160Z,85.86
2023-11-06T13:59:44.521Z,87.79
2023-11-06T14:01:44.825Z,86.21
2023-11-06T14:03:45.394Z,86.92
2023-11-06T14:05:45.806Z,86.30
2023-11-06T14:07:46.097Z,86.10
2023-11-06T14:09:46.376Z,86.82
2023-11-06T14:11:46.720Z,87.12
2023-11-06T14:13:49.013Z,87.73
2023-11-06T14:15:51.920Z,87.43
2023-11-06T14:17:52.214Z,87.53
2023-11-06T14:19:52.511Z,87.57
2023-11-06T14:21:52.833Z,87.88
2023-11-06T14:23:53.873Z,86.96
2023-11-06T14:25:54.273Z,87.26
2023-11-06T14:27:54.545Z,86.86
2023-11-06T14:29:54.878Z,86.65
2023-11-06T14:31:55.332Z,86.65
2023-11-06T14:33:56.354Z,86.15
2023-11-06T14:35:56.660Z,85.33
2023-11-06T14:37:56.952Z,85.63
2023-11-06T14:39:57.226Z,86.24
2023-11-06T14:41:57.564Z,86.04
2023-11-06T14:43:57.857Z,85.63
2023-11-06T14:45:58.132Z,85.74
2023-11-06T14:47:58.461Z,85.63
2023-11-06T14:49:58.779Z,85.60
2023-11-06T14:51:59.120Z,86.10
2023-11-06T14:53:59.419Z,84.88
2023-11-06T14:55:59.707Z,85.19
2023-11-06T14:58:00.049Z,84.98
2023-11-06T15:00:00.915Z,85.28
2023-11-06T15:02:01.692Z,85.39
2023-11-06T15:04:02.190Z,85.69
2023-11-06T15:06:02.853Z,85.60
2023-11-06T15:08:03.155Z,85.60
2023-11-06T15:10:03.726Z,85.60
2023-11-06T15:12:04.150Z,85.08
2023-11-06T15:14:04.428Z,85.28
2023-11-06T15:16:04.762Z,85.39
2023-11-06T15:18:05.275Z,85.90
2023-11-06T15:20:05.607Z,85.94
2023-11-06T15:22:05.930Z,86.15
2023-11-06T15:24:06.180Z,85.74
2023-11-06T15:26:06.498Z,86.35
2023-11-06T15:28:06.873Z,86.96
2023-11-06T15:30:07.174Z,86.65
2023-11-06T15:32:07.946Z,85.63
2023-11-06T15:34:08.780Z,86.45
2023-11-06T15:36:09.117Z,85.74
2023-11-06T15:38:09.573Z,85.53
2023-11-06T15:40:10.150Z,86.24
2023-11-06T15:42:10.457Z,85.63
2023-11-06T15:44:10.877Z,85.63
2023-11-06T15:46:20.616Z,85.98
2023-11-06T15:48:16.539Z,86.90
2023-11-06T15:50:16.873Z,87.00
2023-11-06T15:52:17.171Z,86.59
2023-11-06T15:54:17.844Z,86.59
2023-11-06T15:56:18.302Z,86.08
2023-11-06T15:58:20.183Z,85.88
2023-11-06T16:00:21.055Z,85.27
2023-11-06T16:02:21.357Z,85.37
2023-11-06T16:04:21.717Z,85.37
2023-11-06T16:06:22.090Z,85.47
2023-11-06T16:08:22.408Z,85.47
2023-11-06T16:10:22.923Z,85.57
2023-11-06T16:12:23.172Z,85.37
2023-11-06T16:14:23.521Z,85.16
2023-11-06T16:16:25.090Z,85.27
2023-11-06T16:18:26.499Z,85.57
2023-11-06T16:20:26.837Z,85.98
2023-11-06T16:22:29.798Z,85.98
2023-11-06T16:24:30.390Z,85.77
2023-11-06T16:26:30.695Z,86.08
2023-11-06T16:28:30.946Z,86.22
2023-11-06T16:30:31.290Z,86.22
2023-11-06T16:32:31.811Z,85.71
2023-11-06T16:34:41.274Z,85.21
2023-11-06T16:36:37.336Z,85.10
2023-11-06T16:38:37.673Z,84.28
2023-11-06T16:40:37.990Z,83.67
2023-11-06T16:42:38.267Z,83.67
2023-11-06T16:44:38.598Z,82.45
2023-11-06T16:46:38.887Z,82.45
2023-11-06T16:48:39.512Z,82.86
2023-11-06T16:50:39.886Z,82.65
2023-11-06T16:52:40.173Z,82.59
2023-11-06T16:54:40.491Z,83.00
2023-11-06T16:56:40.789Z,82.79
2023-11-06T16:58:41.131Z,83.20
2023-11-06T17:00:41.491Z,83.75
2023-11-06T17:02:42.208Z,84.36
2023-11-06T17:04:42.707Z,84.88
2023-11-06T17:06:42.965Z,85.42
2023-11-06T17:08:43.299Z,86.14
2023-11-06T17:10:43.572Z,86.65
2023-11-06T17:12:44.040Z,87.61
2023-11-06T17:14:44.348Z,88.12
2023-11-06T17:16:45.024Z,88.74
2023-11-06T17:18:45.686Z,89.18
2023-11-06T17:20:46.054Z,89.80
2023-11-06T17:22:46.631Z,90.31
2023-11-06T17:24:47.070Z,90.52
2023-11-06T17:26:47.500Z,90.92
2023-11-06T17:28:47.928Z,91.27
2023-11-06T17:30:48.268Z,91.48
2023-11-06T17:32:48.626Z,91.48
2023-11-06T17:34:49.050Z,91.48
2023-11-06T17:36:49.423Z,91.38
2023-11-06T17:38:49.776Z,91.27
2023-11-06T17:40:50.551Z,91.48
2023-11-06T17:42:50.856Z,91.78
2023-11-06T17:44:51.198Z,91.93
2023-11-06T17:46:51.512Z,92.03
2023-11-06T17:48:51.977Z,92.03
2023-11-06T17:50:52.601Z,92.24
2023-11-06T17:52:53.630Z,92.24
2023-11-06T17:54:53.888Z,92.24
2023-11-06T17:56:54.900Z,92.38
2023-11-06T17:58:55.316Z,92.18
2023-11-06T18:00:55.670Z,92.03
2023-11-06T18:02:56.577Z,92.08
2023-11-06T18:04:56.946Z,92.18
2023-11-06T18:06:57.270Z,92.38
2023-11-06T18:08:57.571Z,92.59
2023-11-06T18:10:57.857Z,92.69
2023-11-06T18:12:58.153Z,92.94
2023-11-06T18:14:58.483Z,93.25
2023-11-06T18:16:58.762Z,93.04
2023-11-06T18:18:59.154Z,93.35
2023-11-06T18:20:59.485Z,93.45
2023-11-06T18:22:59.850Z,93.49
2023-11-06T18:25:00.213Z,93.55
2023-11-06T18:27:00.514Z,93.60
2023-11-06T18:29:00.798Z,93.80
2023-11-06T18:31:01.172Z,94.21
2023-11-06T18:33:01.640Z,94.52
2023-11-06T18:35:01.966Z,94.62
2023-11-06T18:37:02.332Z,94.87
2023-11-06T18:39:02.570Z,95.18
2023-11-06T18:41:02.849Z,95.49
2023-11-06T18:43:03.190Z,95.49
2023-11-06T18:45:03.469Z,95.90
2023-11-06T18:47:03.723Z,96.04
2023-11-06T18:49:04.011Z,96.15
2023-11-06T18:51:04.400Z,96.35
2023-11-06T18:53:04.636Z,96.56
2023-11-06T18:55:04.976Z,96.77
2023-11-06T18:57:05.252Z,96.97
2023-11-06T18:59:05.544Z,96.97
2023-11-06T19:01:05.827Z,96.97
2023-11-06T19:03:06.191Z,96.97
2023-11-06T19:05:06.623Z,97.07
2023-11-06T19:07:06.930Z,97.07
2023-11-06T19:09:07.272Z,97.28
2023-11-06T19:11:07.529Z,97.38
2023-11-06T19:13:07.867Z,97.53
2023-11-06T19:15:08.163Z,97.83
2023-11-06T19:17:08.435Z,97.83
2023-11-06T19:19:08.789Z,98.14
2023-11-06T19:21:09.029Z,98.14
2023-11-06T19:23:09.360Z,98.45
2023-11-06T19:25:09.607Z,98.45
2023-11-06T19:27:09.906Z,98.66
2023-11-06T19:29:10.225Z,98.91
2023-11-06T19:31:10.566Z,99.21
2023-11-06T19:33:10.910Z,99.42
2023-11-06T19:35:11.186Z,99.63
2023-11-06T19:37:11.465Z,99.88
2023-11-06T19:39:11.840Z,99.99
2023-11-06T19:41:12.089Z,99.99
2023-11-06T19:43:12.390Z,99.99
2023-11-06T19:45:12.716Z,99.99
2023-11-06T19:47:13.018Z,99.99
2023-11-06T19:49:13.342Z,99.99
2023-11-06T19:51:13.575Z,99.99
2023-11-06T19:53:13.891Z,99.99
2023-11-06T19:55:14.378Z,99.99
2023-11-06T19:57:14.767Z,99.99
2023-11-06T19:59:29.265Z,99.99
2023-11-06T20:01:20.222Z,99.99
2023-11-06T20:03:20.654Z,99.99
2023-11-06T20:05:21.138Z,99.99
2023-11-06T20:07:21.466Z,99.99
2023-11-06T20:09:21.792Z,99.99
2023-11-06T20:11:26.978Z,99.99
2023-11-06T20:13:27.326Z,99.99
2023-11-06T20:15:27.559Z,99.99
2023-11-06T20:17:28.028Z,99.99
2023-11-06T20:19:28.372Z,99.99
2023-11-06T20:21:28.624Z,99.99
2023-11-06T20:23:30.458Z,99.99
2023-11-06T20:25:31.787Z,99.99
2023-11-06T20:27:32.120Z,99.99
2023-11-06T20:29:32.457Z,99.99
2023-11-06T20:31:32.727Z,99.99
2023-11-06T20:33:33.149Z,99.99
2023-11-06T20:35:33.550Z,99.99
2023-11-06T20:37:33.912Z,99.99
2023-11-06T20:39:34.148Z,99.99
2023-11-06T20:41:34.474Z,99.99
2023-11-06T20:43:34.824Z,99.99
2023-11-06T20:45:35.278Z,99.99
2023-11-06T20:47:35.644Z,99.99
2023-11-06T20:49:35.961Z,99.99
2023-11-06T20:51:36.241Z,99.99
2023-11-06T20:53:36.558Z,99.99
2023-11-06T20:55:36.842Z,99.99
2023-11-06T20:57:37.289Z,99.99
2023-11-06T20:59:37.694Z,99.99
2023-11-06T21:01:37.965Z,99.99
2023-11-06T21:03:38.325Z,99.99
2023-11-06T21:05:40.519Z,99.99
2023-11-06T21:07:40.804Z,99.99
2023-11-06T21:09:41.097Z,99.99
2023-11-06T21:11:41.437Z,99.99
2023-11-06T21:13:41.768Z,99.99
2023-11-06T21:15:42.085Z,99.99
2023-11-06T21:17:42.450Z,99.99
2023-11-06T21:19:42.812Z,99.99
2023-11-06T21:21:48.003Z,99.99
2023-11-06T21:23:48.343Z,99.99
2023-11-06T21:25:48.645Z,99.99
2023-11-06T21:27:48.949Z,99.99
2023-11-06T21:29:49.292Z,99.99
2023-11-06T21:31:49.564Z,99.99
2023-11-06T21:33:49.939Z,99.99
2023-11-06T21:35:50.250Z,99.99
2023-11-06T21:37:50.506Z,99.99
2023-11-06T21:39:50.829Z,99.99
2023-11-06T21:41:51.149Z,99.99
2023-11-06T21:43:51.417Z,99.99
2023-11-06T21:45:51.760Z,99.99
2023-11-06T21:47:52.207Z,99.99
2023-11-06T21:49:52.552Z,99.99
2023-11-06T21:51:52.928Z,99.99
2023-11-06T21:53:53.233Z,99.99
2023-11-06T21:55:53.530Z,99.99
2023-11-06T21:57:53.858Z,99.99
2023-11-06T21:59:54.221Z,99.99
2023-11-06T22:01:54.573Z,99.99
2023-11-06T22:03:54.991Z,99.99
2023-11-06T22:05:55.342Z,99.99
2023-11-06T22:07:55.644Z,99.99
2023-11-06T22:09:55.912Z,99.99
2023-11-06T22:11:56.338Z,99.99
2023-11-06T22:13:56.619Z,99.99
2023-11-06T22:15:56.919Z,99.99
2023-11-06T22:18:02.063Z,99.99
2023-11-06T22:20:02.420Z,99.99
2023-11-06T22:22:02.688Z,99.99
2023-11-06T22:24:03.098Z,99.99
2023-11-06T22:26:03.423Z,99.99
2023-11-06T22:28:03.757Z,99.99
2023-11-06T22:30:04.059Z,99.89
2023-11-06T22:32:04.278Z,99.48
2023-11-06T22:34:04.752Z,99.17
2023-11-06T22:36:05.209Z,98.96
2023-11-06T22:38:07.097Z,98.76
2023-11-06T22:40:07.482Z,98.86
2023-11-06T22:42:07.783Z,98.76
2023-11-06T22:44:08.114Z,98.76
2023-11-06T22:46:08.480Z,98.76
2023-11-06T22:48:08.904Z,98.86
2023-11-06T22:50:09.211Z,98.86
2023-11-06T22:52:09.542Z,98.96
2023-11-06T22:54:09.786Z,99.07
2023-11-06T22:56:10.083Z,99.07
2023-11-06T22:58:10.386Z,99.07
2023-11-06T23:00:10.675Z,99.17
2023-11-06T23:02:11.002Z,99.27
2023-11-06T23:04:11.380Z,99.38
2023-11-06T23:06:11.683Z,99.38
2023-11-06T23:08:11.990Z,99.27
2023-11-06T23:10:12.588Z,99.38
2023-11-06T23:12:17.439Z,99.48
2023-11-06T23:14:17.771Z,99.48
2023-11-06T23:16:18.088Z,99.68
2023-11-06T23:18:18.469Z,99.68
2023-11-06T23:20:18.774Z,99.89
2023-11-06T23:22:19.113Z,99.99
2023-11-06T23:24:19.381Z,99.99
2023-11-06T23:26:21.230Z,99.99
2023-11-06T23:28:21.990Z,99.99
2023-11-06T23:30:22.288Z,99.99
2023-11-06T23:32:22.595Z,99.99
2023-11-06T23:34:22.895Z,99.99
2023-11-06T23:36:23.174Z,99.99
2023-11-06T23:38:23.472Z,99.99
2023-11-06T23:40:23.794Z,99.99
2023-11-06T23:42:24.100Z,99.99
2023-11-06T23:44:24.345Z,99.99
2023-11-06T23:46:24.672Z,99.99
2023-11-06T23:48:25.033Z,99.99
2023-11-06T23:50:25.369Z,99.99
2023-11-06T23:52:25.638Z,99.99
2023-11-06T23:54:25.998Z,99.99
2023-11-06T23:56:26.322Z,99.99
2023-11-06T23:58:27.107Z,99.99
